KTIK

Tinker AFB Airport

Oklahoma City, Oklahoma, USA
METAR KTIK 181456Z AUTO 18012KT 10SM CLR M05/M14 A3038 RMK AO2 SLP312 T10501136 55006
Observed Flight Rules
Jan-18 @ 14:56 UTC (31 minutes ago) Visual Flight Rules
Wind Visibility Clouds
180° at 12 knots 10 miles
  • Clear skies
Temperatures Readings
Current -5°C / 23°F
Dewpoint -14°C / 7°F
Humidity 50%
Altimeter 30.38" Hg
Pressure 1031.2 hPa
Elevation 394
METAR KTIK 181456Z AUTO 18012KT 10SM CLR M05/M14 A3038 RMK AO2 SLP312 T10501136 55006
Observed Flight Rules
Jan-18 @ 14:56 UTC
(31 minutes ago)
VFR
Wind Visibility
180° at 12 knots 10 miles
Clouds
  • Clear skies
Temperature Dewpoint
-5°C / 23°F -14°C / 7°F
Humidity Altimeter Pressure
50% 30.38" Hg 1031.2 hPa